sensor_id;sensor_type;location;lat;lon;timestamp;temperature;humidity
7654;DHT22;3869;48.406;10.774;2023-02-05T00:00:02;0.50;99.90
7654;DHT22;3869;48.406;10.774;2023-02-05T00:02:30;0.50;99.90
7654;DHT22;3869;48.406;10.774;2023-02-05T00:04:59;0.40;99.90
7654;DHT22;3869;48.406;10.774;2023-02-05T00:07:27;0.30;99.90
7654;DHT22;3869;48.406;10.774;2023-02-05T00:09:55;0.20;99.90
7654;DHT22;3869;48.406;10.774;2023-02-05T00:12:23;0.20;99.90
7654;DHT22;3869;48.406;10.774;2023-02-05T00:14:51;0.10;99.90
7654;DHT22;3869;48.406;10.774;2023-02-05T00:17:19;0.10;99.90
7654;DHT22;3869;48.406;10.774;2023-02-05T00:19:47;0.00;99.90
7654;DHT22;3869;48.406;10.774;2023-02-05T00:22:16;0.00;99.90
7654;DHT22;3869;48.406;10.774;2023-02-05T00:24:44;0.00;99.90
7654;DHT22;3869;48.406;10.774;2023-02-05T00:27:12;0.00;99.90
7654;DHT22;3869;48.406;10.774;2023-02-05T00:29:40;-0.10;99.90
7654;DHT22;3869;48.406;10.774;2023-02-05T00:32:08;-0.10;99.90
7654;DHT22;3869;48.406;10.774;2023-02-05T00:34:36;-0.10;99.90
7654;DHT22;3869;48.406;10.774;2023-02-05T00:37:04;-0.10;99.90
7654;DHT22;3869;48.406;10.774;2023-02-05T00:39:33;-0.10;99.90
7654;DHT22;3869;48.406;10.774;2023-02-05T00:42:01;-0.20;99.90
7654;DHT22;3869;48.406;10.774;2023-02-05T00:44:29;-0.10;99.90
7654;DHT22;3869;48.406;10.774;2023-02-05T00:46:57;-0.10;99.90
7654;DHT22;3869;48.406;10.774;2023-02-05T00:49:25;-0.20;99.90
7654;DHT22;3869;48.406;10.774;2023-02-05T00:51:53;-0.30;99.90
7654;DHT22;3869;48.406;10.774;2023-02-05T00:54:21;-0.40;99.90
7654;DHT22;3869;48.406;10.774;2023-02-05T00:56:50;-0.40;99.90
7654;DHT22;3869;48.406;10.774;2023-02-05T00:59:18;-0.40;99.90
7654;DHT22;3869;48.406;10.774;2023-02-05T01:01:47;-0.50;99.90
7654;DHT22;3869;48.406;10.774;2023-02-05T01:04:15;-0.50;99.90
7654;DHT22;3869;48.406;10.774;2023-02-05T01:06:43;-0.50;99.90
7654;DHT22;3869;48.406;10.774;2023-02-05T01:09:10;-0.50;99.90
7654;DHT22;3869;48.406;10.774;2023-02-05T01:11:38;-0.50;99.90
7654;DHT22;3869;48.406;10.774;2023-02-05T01:14:08;-0.50;99.90
7654;DHT22;3869;48.406;10.774;2023-02-05T01:16:36;-0.50;99.90
7654;DHT22;3869;48.406;10.774;2023-02-05T01:19:04;-0.50;99.90
7654;DHT22;3869;48.406;10.774;2023-02-05T01:21:32;-0.60;99.90
7654;DHT22;3869;48.406;10.774;2023-02-05T01:24:02;-0.70;99.90
7654;DHT22;3869;48.406;10.774;2023-02-05T01:26:30;-0.70;99.90
7654;DHT22;3869;48.406;10.774;2023-02-05T01:28:58;-0.70;99.90
7654;DHT22;3869;48.406;10.774;2023-02-05T01:31:27;-0.70;99.90
7654;DHT22;3869;48.406;10.774;2023-02-05T01:33:55;-0.70;99.90
7654;DHT22;3869;48.406;10.774;2023-02-05T01:36:23;-0.60;99.90
7654;DHT22;3869;48.406;10.774;2023-02-05T01:38:51;-0.60;99.90
7654;DHT22;3869;48.406;10.774;2023-02-05T01:41:20;-0.60;99.90
7654;DHT22;3869;48.406;10.774;2023-02-05T01:44:08;-0.50;99.90
7654;DHT22;3869;48.406;10.774;2023-02-05T01:46:39;-0.60;99.90
7654;DHT22;3869;48.406;10.774;2023-02-05T01:49:12;-0.60;99.90
7654;DHT22;3869;48.406;10.774;2023-02-05T01:51:43;-0.60;99.90
7654;DHT22;3869;48.406;10.774;2023-02-05T01:54:12;-0.70;99.90
7654;DHT22;3869;48.406;10.774;2023-02-05T01:56:43;-0.80;99.90
7654;DHT22;3869;48.406;10.774;2023-02-05T01:59:15;-0.80;99.90
7654;DHT22;3869;48.406;10.774;2023-02-05T02:01:45;-0.70;99.90
7654;DHT22;3869;48.406;10.774;2023-02-05T02:04:17;-0.80;99.90
7654;DHT22;3869;48.406;10.774;2023-02-05T02:06:47;-0.80;99.90
7654;DHT22;3869;48.406;10.774;2023-02-05T02:09:15;-0.90;99.90
7654;DHT22;3869;48.406;10.774;2023-02-05T02:11:44;-0.90;99.90
7654;DHT22;3869;48.406;10.774;2023-02-05T02:14:12;-0.90;99.90
7654;DHT22;3869;48.406;10.774;2023-02-05T02:16:41;-0.90;99.90
7654;DHT22;3869;48.406;10.774;2023-02-05T02:19:15;-0.90;99.90
7654;DHT22;3869;48.406;10.774;2023-02-05T02:28:18;-1.10;99.90
7654;DHT22;3869;48.406;10.774;2023-02-05T02:30:55;-1.10;99.90
7654;DHT22;3869;48.406;10.774;2023-02-05T02:33:30;-1.10;99.90
7654;DHT22;3869;48.406;10.774;2023-02-05T02:36:01;-1.10;99.90
7654;DHT22;3869;48.406;10.774;2023-02-05T02:38:32;-1.10;99.90
7654;DHT22;3869;48.406;10.774;2023-02-05T02:41:05;-1.20;99.90
7654;DHT22;3869;48.406;10.774;2023-02-05T02:43:40;-1.10;99.90
7654;DHT22;3869;48.406;10.774;2023-02-05T02:46:18;-1.10;99.90
7654;DHT22;3869;48.406;10.774;2023-02-05T02:48:49;-1.10;99.90
7654;DHT22;3869;48.406;10.774;2023-02-05T02:51:19;-1.10;99.90
7654;DHT22;3869;48.406;10.774;2023-02-05T02:53:50;-1.00;99.90
7654;DHT22;3869;48.406;10.774;2023-02-05T02:56:22;-1.10;99.90
7654;DHT22;3869;48.406;10.774;2023-02-05T02:58:55;-1.00;99.90
7654;DHT22;3869;48.406;10.774;2023-02-05T03:01:28;-1.00;99.90
7654;DHT22;3869;48.406;10.774;2023-02-05T03:04:01;-1.00;99.90
7654;DHT22;3869;48.406;10.774;2023-02-05T03:06:31;-1.10;99.90
7654;DHT22;3869;48.406;10.774;2023-02-05T03:09:05;-1.20;99.90
7654;DHT22;3869;48.406;10.774;2023-02-05T03:11:35;-1.20;99.90
7654;DHT22;3869;48.406;10.774;2023-02-05T03:14:04;-1.20;99.90
7654;DHT22;3869;48.406;10.774;2023-02-05T03:16:32;-1.20;99.90
7654;DHT22;3869;48.406;10.774;2023-02-05T03:19:01;-1.10;99.90
7654;DHT22;3869;48.406;10.774;2023-02-05T03:21:34;-1.00;99.90
7654;DHT22;3869;48.406;10.774;2023-02-05T03:24:03;-1.00;99.90
7654;DHT22;3869;48.406;10.774;2023-02-05T03:26:33;-1.00;99.90
7654;DHT22;3869;48.406;10.774;2023-02-05T03:29:05;-0.90;99.90
7654;DHT22;3869;48.406;10.774;2023-02-05T03:31:40;-0.90;99.90
7654;DHT22;3869;48.406;10.774;2023-02-05T03:34:19;-0.90;99.90
7654;DHT22;3869;48.406;10.774;2023-02-05T03:36:57;-0.90;99.90
7654;DHT22;3869;48.406;10.774;2023-02-05T03:39:35;-0.80;99.90
7654;DHT22;3869;48.406;10.774;2023-02-05T03:42:15;-0.80;99.90
7654;DHT22;3869;48.406;10.774;2023-02-05T03:45:02;-0.40;99.90
7654;DHT22;3869;48.406;10.774;2023-02-05T03:47:39;-0.80;99.90
7654;DHT22;3869;48.406;10.774;2023-02-05T03:50:20;-0.80;99.90
7654;DHT22;3869;48.406;10.774;2023-02-05T03:52:56;-0.80;99.90
7654;DHT22;3869;48.406;10.774;2023-02-05T03:55:29;-0.80;99.90
7654;DHT22;3869;48.406;10.774;2023-02-05T03:58:01;-0.80;99.90
7654;DHT22;3869;48.406;10.774;2023-02-05T04:00:33;-0.90;99.90
7654;DHT22;3869;48.406;10.774;2023-02-05T04:03:01;-1.00;99.90
7654;DHT22;3869;48.406;10.774;2023-02-05T04:05:29;-0.90;99.90
7654;DHT22;3869;48.406;10.774;2023-02-05T04:07:57;-0.90;99.90
7654;DHT22;3869;48.406;10.774;2023-02-05T04:10:25;-0.80;99.90
7654;DHT22;3869;48.406;10.774;2023-02-05T04:12:53;-0.70;99.90
7654;DHT22;3869;48.406;10.774;2023-02-05T04:15:21;-0.70;99.90
7654;DHT22;3869;48.406;10.774;2023-02-05T04:17:50;-0.70;99.90
7654;DHT22;3869;48.406;10.774;2023-02-05T04:20:18;-0.70;99.90
7654;DHT22;3869;48.406;10.774;2023-02-05T04:22:46;-0.80;99.90
7654;DHT22;3869;48.406;10.774;2023-02-05T04:25:14;-0.80;99.90
7654;DHT22;3869;48.406;10.774;2023-02-05T04:27:42;-0.80;99.90
7654;DHT22;3869;48.406;10.774;2023-02-05T04:30:11;-0.90;99.90
7654;DHT22;3869;48.406;10.774;2023-02-05T04:32:39;-0.90;99.90
7654;DHT22;3869;48.406;10.774;2023-02-05T04:35:08;-1.00;99.90
7654;DHT22;3869;48.406;10.774;2023-02-05T04:37:36;-1.00;99.90
7654;DHT22;3869;48.406;10.774;2023-02-05T04:40:06;-1.00;99.90
7654;DHT22;3869;48.406;10.774;2023-02-05T04:42:34;-1.00;99.90
7654;DHT22;3869;48.406;10.774;2023-02-05T04:45:02;-1.00;99.90
7654;DHT22;3869;48.406;10.774;2023-02-05T04:47:32;-1.00;99.90
7654;DHT22;3869;48.406;10.774;2023-02-05T04:50:00;-1.00;99.90
7654;DHT22;3869;48.406;10.774;2023-02-05T04:52:29;-1.10;99.90
7654;DHT22;3869;48.406;10.774;2023-02-05T04:54:57;-1.10;99.90
7654;DHT22;3869;48.406;10.774;2023-02-05T04:57:25;-1.20;99.90
7654;DHT22;3869;48.406;10.774;2023-02-05T04:59:53;-1.20;99.90
7654;DHT22;3869;48.406;10.774;2023-02-05T05:02:21;-1.30;99.90
7654;DHT22;3869;48.406;10.774;2023-02-05T05:04:50;-1.30;99.90
7654;DHT22;3869;48.406;10.774;2023-02-05T05:07:18;-1.40;99.90
7654;DHT22;3869;48.406;10.774;2023-02-05T05:09:47;-1.40;99.90
7654;DHT22;3869;48.406;10.774;2023-02-05T05:12:17;-1.40;99.90
7654;DHT22;3869;48.406;10.774;2023-02-05T05:14:45;-1.50;99.90
7654;DHT22;3869;48.406;10.774;2023-02-05T05:17:13;-1.50;99.90
7654;DHT22;3869;48.406;10.774;2023-02-05T05:19:41;-1.50;99.90
7654;DHT22;3869;48.406;10.774;2023-02-05T05:22:09;-1.60;99.90
7654;DHT22;3869;48.406;10.774;2023-02-05T05:24:37;-1.60;99.90
7654;DHT22;3869;48.406;10.774;2023-02-05T05:27:06;-1.60;99.90
7654;DHT22;3869;48.406;10.774;2023-02-05T05:29:34;-1.50;99.90
7654;DHT22;3869;48.406;10.774;2023-02-05T05:32:03;-1.50;99.90
7654;DHT22;3869;48.406;10.774;2023-02-05T05:34:31;-1.50;99.90
7654;DHT22;3869;48.406;10.774;2023-02-05T05:36:59;-1.50;99.90
7654;DHT22;3869;48.406;10.774;2023-02-05T05:39:27;-1.60;99.90
7654;DHT22;3869;48.406;10.774;2023-02-05T05:42:14;-1.70;99.90
7654;DHT22;3869;48.406;10.774;2023-02-05T05:44:59;-1.70;99.90
7654;DHT22;3869;48.406;10.774;2023-02-05T05:47:27;-1.70;99.90
7654;DHT22;3869;48.406;10.774;2023-02-05T05:49:55;-1.70;99.90
7654;DHT22;3869;48.406;10.774;2023-02-05T05:52:23;-1.70;99.90
7654;DHT22;3869;48.406;10.774;2023-02-05T05:54:51;-1.70;99.90
7654;DHT22;3869;48.406;10.774;2023-02-05T05:57:20;-1.70;99.90
7654;DHT22;3869;48.406;10.774;2023-02-05T05:59:48;-1.80;99.90
7654;DHT22;3869;48.406;10.774;2023-02-05T06:02:16;-1.90;99.90
7654;DHT22;3869;48.406;10.774;2023-02-05T06:04:44;-1.90;99.90
7654;DHT22;3869;48.406;10.774;2023-02-05T06:07:12;-1.90;99.90
7654;DHT22;3869;48.406;10.774;2023-02-05T06:09:40;-1.90;99.90
7654;DHT22;3869;48.406;10.774;2023-02-05T06:12:08;-1.90;99.90
7654;DHT22;3869;48.406;10.774;2023-02-05T06:14:38;-2.00;99.90
7654;DHT22;3869;48.406;10.774;2023-02-05T06:17:06;-2.00;99.90
7654;DHT22;3869;48.406;10.774;2023-02-05T06:19:34;-2.00;99.90
7654;DHT22;3869;48.406;10.774;2023-02-05T06:22:02;-2.00;99.90
7654;DHT22;3869;48.406;10.774;2023-02-05T06:24:30;-2.00;99.90
7654;DHT22;3869;48.406;10.774;2023-02-05T06:26:58;-2.00;99.90
7654;DHT22;3869;48.406;10.774;2023-02-05T06:29:26;-2.00;99.90
7654;DHT22;3869;48.406;10.774;2023-02-05T06:31:55;-2.00;99.90
7654;DHT22;3869;48.406;10.774;2023-02-05T06:34:23;-2.00;99.90
7654;DHT22;3869;48.406;10.774;2023-02-05T06:36:51;-2.10;99.90
7654;DHT22;3869;48.406;10.774;2023-02-05T06:39:19;-2.10;99.90
7654;DHT22;3869;48.406;10.774;2023-02-05T06:41:50;-2.10;99.90
7654;DHT22;3869;48.406;10.774;2023-02-05T06:44:18;-2.10;99.90
7654;DHT22;3869;48.406;10.774;2023-02-05T06:46:46;-2.10;99.90
7654;DHT22;3869;48.406;10.774;2023-02-05T06:49:15;-2.10;99.90
7654;DHT22;3869;48.406;10.774;2023-02-05T06:51:43;-2.10;99.90
7654;DHT22;3869;48.406;10.774;2023-02-05T06:54:11;-2.00;99.90
7654;DHT22;3869;48.406;10.774;2023-02-05T06:56:39;-2.00;99.90
7654;DHT22;3869;48.406;10.774;2023-02-05T06:59:07;-2.00;99.90
7654;DHT22;3869;48.406;10.774;2023-02-05T07:01:35;-2.00;99.90
7654;DHT22;3869;48.406;10.774;2023-02-05T07:04:03;-2.00;99.90
7654;DHT22;3869;48.406;10.774;2023-02-05T07:06:32;-2.10;99.90
7654;DHT22;3869;48.406;10.774;2023-02-05T07:09:00;-2.10;99.90
7654;DHT22;3869;48.406;10.774;2023-02-05T07:11:28;-2.10;99.90
7654;DHT22;3869;48.406;10.774;2023-02-05T07:13:59;-2.10;99.90
7654;DHT22;3869;48.406;10.774;2023-02-05T07:16:28;-2.10;99.90
7654;DHT22;3869;48.406;10.774;2023-02-05T07:18:56;-2.10;99.90
7654;DHT22;3869;48.406;10.774;2023-02-05T07:21:24;-2.10;99.90
7654;DHT22;3869;48.406;10.774;2023-02-05T07:23:54;-2.00;99.90
7654;DHT22;3869;48.406;10.774;2023-02-05T07:26:22;-1.90;99.90
7654;DHT22;3869;48.406;10.774;2023-02-05T07:28:50;-1.80;99.90
7654;DHT22;3869;48.406;10.774;2023-02-05T07:31:18;-1.70;99.90
7654;DHT22;3869;48.406;10.774;2023-02-05T07:33:47;-1.80;99.90
7654;DHT22;3869;48.406;10.774;2023-02-05T07:36:17;-1.70;99.90
7654;DHT22;3869;48.406;10.774;2023-02-05T07:38:46;-1.60;99.90
7654;DHT22;3869;48.406;10.774;2023-02-05T07:41:16;-1.50;99.90
7654;DHT22;3869;48.406;10.774;2023-02-05T07:43:44;-1.50;99.90
7654;DHT22;3869;48.406;10.774;2023-02-05T07:46:13;-1.40;99.90
7654;DHT22;3869;48.406;10.774;2023-02-05T07:48:41;-1.30;99.90
7654;DHT22;3869;48.406;10.774;2023-02-05T07:51:15;-1.20;99.90
7654;DHT22;3869;48.406;10.774;2023-02-05T07:53:43;-1.10;99.90
7654;DHT22;3869;48.406;10.774;2023-02-05T07:56:12;-0.90;99.90
7654;DHT22;3869;48.406;10.774;2023-02-05T07:58:42;-0.80;99.90
7654;DHT22;3869;48.406;10.774;2023-02-05T08:01:10;-0.70;99.90
7654;DHT22;3869;48.406;10.774;2023-02-05T08:03:38;-0.50;99.90
7654;DHT22;3869;48.406;10.774;2023-02-05T08:06:08;-0.40;99.90
7654;DHT22;3869;48.406;10.774;2023-02-05T08:08:36;-0.30;99.90
7654;DHT22;3869;48.406;10.774;2023-02-05T08:11:05;-0.20;99.90
7654;DHT22;3869;48.406;10.774;2023-02-05T08:13:33;-0.10;99.90
7654;DHT22;3869;48.406;10.774;2023-02-05T08:16:05;0.00;99.90
7654;DHT22;3869;48.406;10.774;2023-02-05T08:18:33;0.20;99.90
7654;DHT22;3869;48.406;10.774;2023-02-05T08:21:01;0.30;99.90
7654;DHT22;3869;48.406;10.774;2023-02-05T08:23:29;0.40;99.90
7654;DHT22;3869;48.406;10.774;2023-02-05T08:25:58;0.40;99.90
7654;DHT22;3869;48.406;10.774;2023-02-05T08:28:27;0.50;99.90
7654;DHT22;3869;48.406;10.774;2023-02-05T08:30:55;0.60;99.90
7654;DHT22;3869;48.406;10.774;2023-02-05T08:33:25;0.60;99.90
7654;DHT22;3869;48.406;10.774;2023-02-05T08:35:53;0.60;99.90
7654;DHT22;3869;48.406;10.774;2023-02-05T08:38:21;0.60;99.90
7654;DHT22;3869;48.406;10.774;2023-02-05T08:40:49;0.70;99.90
7654;DHT22;3869;48.406;10.774;2023-02-05T08:43:17;0.70;99.90
7654;DHT22;3869;48.406;10.774;2023-02-05T08:45:45;0.80;99.90
7654;DHT22;3869;48.406;10.774;2023-02-05T08:48:14;0.80;99.90
7654;DHT22;3869;48.406;10.774;2023-02-05T08:50:45;0.90;99.90
7654;DHT22;3869;48.406;10.774;2023-02-05T08:53:13;1.00;99.90
7654;DHT22;3869;48.406;10.774;2023-02-05T08:55:41;1.00;99.90
7654;DHT22;3869;48.406;10.774;2023-02-05T08:58:09;1.10;99.90
7654;DHT22;3869;48.406;10.774;2023-02-05T09:00:37;1.20;99.90
7654;DHT22;3869;48.406;10.774;2023-02-05T09:03:05;1.30;99.90
7654;DHT22;3869;48.406;10.774;2023-02-05T09:05:34;1.50;99.90
7654;DHT22;3869;48.406;10.774;2023-02-05T09:08:04;1.60;99.90
7654;DHT22;3869;48.406;10.774;2023-02-05T09:10:32;1.80;99.90
7654;DHT22;3869;48.406;10.774;2023-02-05T09:13:00;2.00;99.90
7654;DHT22;3869;48.406;10.774;2023-02-05T09:15:28;2.10;99.90
7654;DHT22;3869;48.406;10.774;2023-02-05T09:17:56;2.20;99.90
7654;DHT22;3869;48.406;10.774;2023-02-05T09:20:24;2.30;99.90
7654;DHT22;3869;48.406;10.774;2023-02-05T09:22:52;2.40;99.90
7654;DHT22;3869;48.406;10.774;2023-02-05T09:25:22;2.50;99.90
7654;DHT22;3869;48.406;10.774;2023-02-05T09:27:50;2.60;99.90
7654;DHT22;3869;48.406;10.774;2023-02-05T09:30:18;2.70;99.90
7654;DHT22;3869;48.406;10.774;2023-02-05T09:32:46;2.70;99.90
7654;DHT22;3869;48.406;10.774;2023-02-05T09:35:14;2.70;99.90
7654;DHT22;3869;48.406;10.774;2023-02-05T09:37:43;2.80;99.90
7654;DHT22;3869;48.406;10.774;2023-02-05T09:40:18;2.80;99.90
7654;DHT22;3869;48.406;10.774;2023-02-05T09:42:58;2.90;99.90
7654;DHT22;3869;48.406;10.774;2023-02-05T09:45:38;2.90;99.90
7654;DHT22;3869;48.406;10.774;2023-02-05T09:51:17;3.20;99.90
7654;DHT22;3869;48.406;10.774;2023-02-05T09:53:50;3.30;99.90
7654;DHT22;3869;48.406;10.774;2023-02-05T09:56:20;3.50;99.90
7654;DHT22;3869;48.406;10.774;2023-02-05T09:58:51;3.50;99.90
7654;DHT22;3869;48.406;10.774;2023-02-05T10:01:23;3.40;99.90
7654;DHT22;3869;48.406;10.774;2023-02-05T10:03:55;3.40;99.90
7654;DHT22;3869;48.406;10.774;2023-02-05T10:06:52;3.20;99.90
7654;DHT22;3869;48.406;10.774;2023-02-05T10:09:51;3.20;99.90
7654;DHT22;3869;48.406;10.774;2023-02-05T10:12:30;3.20;99.90
7654;DHT22;3869;48.406;10.774;2023-02-05T10:15:22;3.30;99.90
7654;DHT22;3869;48.406;10.774;2023-02-05T10:18:03;3.40;99.90
7654;DHT22;3869;48.406;10.774;2023-02-05T10:20:51;3.50;99.90
7654;DHT22;3869;48.406;10.774;2023-02-05T10:23:36;3.60;99.90
7654;DHT22;3869;48.406;10.774;2023-02-05T10:26:09;3.70;99.90
7654;DHT22;3869;48.406;10.774;2023-02-05T10:29:06;3.60;99.90
7654;DHT22;3869;48.406;10.774;2023-02-05T10:31:40;3.60;99.90
7654;DHT22;3869;48.406;10.774;2023-02-05T10:34:17;3.60;99.90
7654;DHT22;3869;48.406;10.774;2023-02-05T10:36:49;3.70;99.90
7654;DHT22;3869;48.406;10.774;2023-02-05T10:39:21;3.70;99.90
7654;DHT22;3869;48.406;10.774;2023-02-05T10:41:54;3.60;99.90
7654;DHT22;3869;48.406;10.774;2023-02-05T10:44:27;3.60;99.90
7654;DHT22;3869;48.406;10.774;2023-02-05T10:47:03;3.50;99.90
7654;DHT22;3869;48.406;10.774;2023-02-05T10:49:41;3.50;99.90
7654;DHT22;3869;48.406;10.774;2023-02-05T10:52:12;3.40;99.90
7654;DHT22;3869;48.406;10.774;2023-02-05T10:54:40;3.30;99.90
7654;DHT22;3869;48.406;10.774;2023-02-05T10:57:13;3.30;99.90
7654;DHT22;3869;48.406;10.774;2023-02-05T10:59:49;3.30;99.90
7654;DHT22;3869;48.406;10.774;2023-02-05T11:02:20;3.40;99.90
7654;DHT22;3869;48.406;10.774;2023-02-05T11:04:53;3.40;99.90
7654;DHT22;3869;48.406;10.774;2023-02-05T11:07:25;3.40;99.90
7654;DHT22;3869;48.406;10.774;2023-02-05T11:09:55;3.50;99.90
7654;DHT22;3869;48.406;10.774;2023-02-05T11:12:28;3.50;99.90
7654;DHT22;3869;48.406;10.774;2023-02-05T11:14:57;3.40;99.90
7654;DHT22;3869;48.406;10.774;2023-02-05T11:17:30;3.30;99.90
7654;DHT22;3869;48.406;10.774;2023-02-05T11:20:03;3.30;99.90
7654;DHT22;3869;48.406;10.774;2023-02-05T11:22:33;3.30;99.90
7654;DHT22;3869;48.406;10.774;2023-02-05T11:25:11;3.30;99.90
7654;DHT22;3869;48.406;10.774;2023-02-05T11:27:48;3.30;99.90
7654;DHT22;3869;48.406;10.774;2023-02-05T11:30:21;3.40;99.90
7654;DHT22;3869;48.406;10.774;2023-02-05T11:33:22;3.40;99.90
7654;DHT22;3869;48.406;10.774;2023-02-05T11:35:53;3.40;99.90
7654;DHT22;3869;48.406;10.774;2023-02-05T11:38:25;3.40;99.90
7654;DHT22;3869;48.406;10.774;2023-02-05T11:40:58;3.40;99.90
7654;DHT22;3869;48.406;10.774;2023-02-05T11:43:27;3.50;99.90
7654;DHT22;3869;48.406;10.774;2023-02-05T11:45:58;3.40;99.90
7654;DHT22;3869;48.406;10.774;2023-02-05T11:48:38;3.40;99.90
7654;DHT22;3869;48.406;10.774;2023-02-05T11:51:09;3.50;99.90
7654;DHT22;3869;48.406;10.774;2023-02-05T11:53:45;3.50;99.90
7654;DHT22;3869;48.406;10.774;2023-02-05T11:56:19;3.50;99.90
7654;DHT22;3869;48.406;10.774;2023-02-05T11:58:58;3.60;99.90
7654;DHT22;3869;48.406;10.774;2023-02-05T12:01:29;3.60;99.90
7654;DHT22;3869;48.406;10.774;2023-02-05T12:04:02;3.60;99.90
7654;DHT22;3869;48.406;10.774;2023-02-05T12:06:35;3.70;99.90
7654;DHT22;3869;48.406;10.774;2023-02-05T12:09:05;3.70;99.90
7654;DHT22;3869;48.406;10.774;2023-02-05T12:11:45;3.70;99.90
7654;DHT22;3869;48.406;10.774;2023-02-05T12:14:40;3.70;99.90
7654;DHT22;3869;48.406;10.774;2023-02-05T12:17:30;3.60;99.90
7654;DHT22;3869;48.406;10.774;2023-02-05T12:20:09;3.60;99.90
7654;DHT22;3869;48.406;10.774;2023-02-05T12:22:56;3.60;99.90
7654;DHT22;3869;48.406;10.774;2023-02-05T12:25:34;3.60;99.90
7654;DHT22;3869;48.406;10.774;2023-02-05T12:28:19;3.60;99.90
7654;DHT22;3869;48.406;10.774;2023-02-05T12:31:00;3.60;99.90
7654;DHT22;3869;48.406;10.774;2023-02-05T12:33:42;3.60;99.90
7654;DHT22;3869;48.406;10.774;2023-02-05T12:36:27;3.60;99.90
7654;DHT22;3869;48.406;10.774;2023-02-05T12:39:07;3.60;99.90
7654;DHT22;3869;48.406;10.774;2023-02-05T12:41:42;3.60;99.90
7654;DHT22;3869;48.406;10.774;2023-02-05T12:44:20;3.60;99.90
7654;DHT22;3869;48.406;10.774;2023-02-05T12:46:59;3.60;99.90
7654;DHT22;3869;48.406;10.774;2023-02-05T12:49:59;3.60;99.90
7654;DHT22;3869;48.406;10.774;2023-02-05T12:52:40;3.50;99.90
7654;DHT22;3869;48.406;10.774;2023-02-05T12:55:21;3.60;99.90
7654;DHT22;3869;48.406;10.774;2023-02-05T12:57:52;3.60;99.90
7654;DHT22;3869;48.406;10.774;2023-02-05T13:00:25;3.60;99.90
7654;DHT22;3869;48.406;10.774;2023-02-05T13:03:02;3.60;99.90
7654;DHT22;3869;48.406;10.774;2023-02-05T13:05:35;3.50;99.90
7654;DHT22;3869;48.406;10.774;2023-02-05T13:08:10;3.50;99.90
7654;DHT22;3869;48.406;10.774;2023-02-05T13:10:46;3.50;99.90
7654;DHT22;3869;48.406;10.774;2023-02-05T13:13:18;3.40;99.90
7654;DHT22;3869;48.406;10.774;2023-02-05T13:15:57;3.40;99.90
7654;DHT22;3869;48.406;10.774;2023-02-05T13:18:29;3.40;99.90
7654;DHT22;3869;48.406;10.774;2023-02-05T13:21:02;3.40;99.90
7654;DHT22;3869;48.406;10.774;2023-02-05T13:23:51;3.40;99.90
7654;DHT22;3869;48.406;10.774;2023-02-05T13:26:40;3.30;99.90
7654;DHT22;3869;48.406;10.774;2023-02-05T13:29:29;3.30;99.90
7654;DHT22;3869;48.406;10.774;2023-02-05T13:32:01;3.40;99.90
7654;DHT22;3869;48.406;10.774;2023-02-05T13:34:42;3.40;99.90
7654;DHT22;3869;48.406;10.774;2023-02-05T13:37:32;3.40;99.90
7654;DHT22;3869;48.406;10.774;2023-02-05T13:40:15;3.40;99.90
7654;DHT22;3869;48.406;10.774;2023-02-05T13:46:06;3.40;99.90
7654;DHT22;3869;48.406;10.774;2023-02-05T13:49:08;3.40;99.90
7654;DHT22;3869;48.406;10.774;2023-02-05T13:51:44;3.40;99.90
7654;DHT22;3869;48.406;10.774;2023-02-05T13:58:09;3.40;99.90
7654;DHT22;3869;48.406;10.774;2023-02-05T14:00:39;3.40;99.90
7654;DHT22;3869;48.406;10.774;2023-02-05T14:03:08;3.30;99.90
7654;DHT22;3869;48.406;10.774;2023-02-05T14:05:48;3.30;99.90
7654;DHT22;3869;48.406;10.774;2023-02-05T14:08:20;3.20;99.90
7654;DHT22;3869;48.406;10.774;2023-02-05T14:10:57;3.20;99.90
7654;DHT22;3869;48.406;10.774;2023-02-05T14:13:28;3.20;99.90
7654;DHT22;3869;48.406;10.774;2023-02-05T14:16:31;3.20;99.90
7654;DHT22;3869;48.406;10.774;2023-02-05T14:19:13;3.20;99.90
7654;DHT22;3869;48.406;10.774;2023-02-05T14:22:00;3.10;99.90
7654;DHT22;3869;48.406;10.774;2023-02-05T14:24:40;3.00;99.90
7654;DHT22;3869;48.406;10.774;2023-02-05T14:30:34;3.00;99.90
7654;DHT22;3869;48.406;10.774;2023-02-05T14:33:28;3.00;99.90
7654;DHT22;3869;48.406;10.774;2023-02-05T14:35:57;2.90;99.90
7654;DHT22;3869;48.406;10.774;2023-02-05T14:38:30;2.90;99.90
7654;DHT22;3869;48.406;10.774;2023-02-05T14:41:05;2.90;99.90
7654;DHT22;3869;48.406;10.774;2023-02-05T14:43:38;2.80;99.90
7654;DHT22;3869;48.406;10.774;2023-02-05T14:46:20;2.80;99.90
7654;DHT22;3869;48.406;10.774;2023-02-05T14:48:49;2.70;99.90
7654;DHT22;3869;48.406;10.774;2023-02-05T14:51:22;2.60;99.90
7654;DHT22;3869;48.406;10.774;2023-02-05T14:53:56;2.50;99.90
7654;DHT22;3869;48.406;10.774;2023-02-05T14:56:28;2.50;99.90
7654;DHT22;3869;48.406;10.774;2023-02-05T14:59:02;2.50;99.90
7654;DHT22;3869;48.406;10.774;2023-02-05T15:01:45;2.40;99.90
7654;DHT22;3869;48.406;10.774;2023-02-05T15:04:22;2.40;99.90
7654;DHT22;3869;48.406;10.774;2023-02-05T15:06:52;2.40;99.90
7654;DHT22;3869;48.406;10.774;2023-02-05T15:09:22;2.40;99.90
7654;DHT22;3869;48.406;10.774;2023-02-05T15:12:07;2.50;99.90
7654;DHT22;3869;48.406;10.774;2023-02-05T15:14:50;2.50;99.90
7654;DHT22;3869;48.406;10.774;2023-02-05T15:17:48;2.40;99.90
7654;DHT22;3869;48.406;10.774;2023-02-05T15:20:35;2.30;99.90
7654;DHT22;3869;48.406;10.774;2023-02-05T15:23:17;2.20;99.90
7654;DHT22;3869;48.406;10.774;2023-02-05T15:25:54;2.20;99.90
7654;DHT22;3869;48.406;10.774;2023-02-05T15:28:27;2.10;99.90
7654;DHT22;3869;48.406;10.774;2023-02-05T15:31:16;2.10;99.90
7654;DHT22;3869;48.406;10.774;2023-02-05T15:33:52;2.10;99.90
7654;DHT22;3869;48.406;10.774;2023-02-05T15:36:29;2.10;99.90
7654;DHT22;3869;48.406;10.774;2023-02-05T15:39:06;2.10;99.90
7654;DHT22;3869;48.406;10.774;2023-02-05T15:41:36;2.20;99.90
7654;DHT22;3869;48.406;10.774;2023-02-05T15:44:19;2.20;99.90
7654;DHT22;3869;48.406;10.774;2023-02-05T15:46:47;2.20;99.90
7654;DHT22;3869;48.406;10.774;2023-02-05T15:49:18;2.10;99.90
7654;DHT22;3869;48.406;10.774;2023-02-05T15:51:47;2.10;99.90
7654;DHT22;3869;48.406;10.774;2023-02-05T15:54:18;2.10;99.90
7654;DHT22;3869;48.406;10.774;2023-02-05T15:56:49;2.10;99.90
7654;DHT22;3869;48.406;10.774;2023-02-05T15:59:20;2.00;99.90
7654;DHT22;3869;48.406;10.774;2023-02-05T16:01:58;1.90;99.90
7654;DHT22;3869;48.406;10.774;2023-02-05T16:04:29;1.90;99.90
7654;DHT22;3869;48.406;10.774;2023-02-05T16:06:58;2.00;99.90
7654;DHT22;3869;48.406;10.774;2023-02-05T16:09:28;2.00;99.90
7654;DHT22;3869;48.406;10.774;2023-02-05T16:12:09;2.00;99.90
7654;DHT22;3869;48.406;10.774;2023-02-05T16:14:37;1.90;99.90
7654;DHT22;3869;48.406;10.774;2023-02-05T16:17:08;1.90;99.90
7654;DHT22;3869;48.406;10.774;2023-02-05T16:19:43;1.80;99.90
7654;DHT22;3869;48.406;10.774;2023-02-05T16:22:22;1.90;99.90
7654;DHT22;3869;48.406;10.774;2023-02-05T16:24:53;1.90;99.90
7654;DHT22;3869;48.406;10.774;2023-02-05T16:27:29;1.90;99.90
7654;DHT22;3869;48.406;10.774;2023-02-05T16:30:01;1.90;99.90
7654;DHT22;3869;48.406;10.774;2023-02-05T16:32:37;1.80;99.90
7654;DHT22;3869;48.406;10.774;2023-02-05T16:35:22;1.80;99.90
7654;DHT22;3869;48.406;10.774;2023-02-05T16:37:51;1.70;99.90
7654;DHT22;3869;48.406;10.774;2023-02-05T16:40:29;1.80;99.90
7654;DHT22;3869;48.406;10.774;2023-02-05T16:43:17;1.80;99.90
7654;DHT22;3869;48.406;10.774;2023-02-05T16:46:19;1.80;99.90
7654;DHT22;3869;48.406;10.774;2023-02-05T16:48:50;1.80;99.90